Time,TemperatureF,DewpointF,PressureIn,WindDirection,WindDirectionDegrees,WindSpeedMPH,WindSpeedGustMPH,Humidity,HourlyPrecipIn,Conditions,Clouds,dailyrainin,SoftwareType,DateUTC
2013-10-13 00:00:00,81.2,77.0,29.97,ESE,123,10.0,18.0,86,0.00,,,0.00,weatherlink.com 1.10,2013-10-13 05:00:00,
2013-10-13 00:15:00,81.2,77.0,29.97,SSE,153,11.0,16.0,86,0.00,,,0.00,weatherlink.com 1.10,2013-10-13 05:15:00,
2013-10-13 00:30:00,81.3,77.0,29.97,SE,144,10.0,19.0,86,0.00,,,0.00,weatherlink.com 1.10,2013-10-13 05:30:00,
2013-10-13 00:45:00,81.2,77.0,29.97,SE,129,8.0,16.0,87,0.00,,,0.00,weatherlink.com 1.10,2013-10-13 05:45:00,
2013-10-13 01:00:00,81.1,77.0,29.97,SE,131,12.0,19.0,86,0.00,,,0.00,weatherlink.com 1.10,2013-10-13 06:00:00,
2013-10-13 01:15:00,81.1,77.0,29.97,SE,140,9.0,16.0,86,0.00,,,0.00,weatherlink.com 1.10,2013-10-13 06:15:00,
2013-10-13 01:30:00,81.1,77.0,29.96,SE,128,9.0,15.0,87,0.00,,,0.00,weatherlink.com 1.10,2013-10-13 06:30:00,
2013-10-13 01:45:00,81.1,77.0,29.97,SE,133,5.0,16.0,87,0.00,,,0.00,weatherlink.com 1.10,2013-10-13 06:45:00,
2013-10-13 02:00:00,81.0,77.0,29.97,SE,136,15.0,16.0,86,0.00,,,0.00,weatherlink.com 1.10,2013-10-13 07:00:00,
2013-10-13 02:15:00,81.0,77.0,29.97,SE,133,10.0,18.0,86,0.00,,,0.00,weatherlink.com 1.10,2013-10-13 07:15:00,
2013-10-13 02:30:00,80.9,76.0,29.97,SE,133,15.0,18.0,86,0.00,,,0.00,weatherlink.com 1.10,2013-10-13 07:30:00,
2013-10-13 02:45:00,80.9,76.0,29.97,SSE,151,6.0,15.0,86,0.00,,,0.00,weatherlink.com 1.10,2013-10-13 07:45:00,
2013-10-13 03:00:00,80.7,77.0,29.97,SSE,154,8.0,12.0,87,0.00,,,0.00,weatherlink.com 1.10,2013-10-13 08:00:00,
2013-10-13 03:15:00,80.8,77.0,29.98,SSE,168,11.0,13.0,87,0.00,,,0.00,weatherlink.com 1.10,2013-10-13 08:15:00,
2013-10-13 03:30:00,80.8,76.0,29.98,SE,143,9.0,14.0,86,0.00,,,0.00,weatherlink.com 1.10,2013-10-13 08:30:00,
2013-10-13 03:45:00,80.8,77.0,29.97,SE,142,5.0,12.0,87,0.00,,,0.00,weatherlink.com 1.10,2013-10-13 08:45:00,
2013-10-13 04:00:00,80.8,77.0,29.97,SE,134,8.0,13.0,87,0.00,,,0.00,weatherlink.com 1.10,2013-10-13 09:00:00,
2013-10-13 04:15:00,80.8,76.0,29.97,SSE,161,7.0,18.0,86,0.00,,,0.00,weatherlink.com 1.10,2013-10-13 09:15:00,
2013-10-13 04:30:00,80.7,77.0,29.97,SE,144,11.0,12.0,87,0.00,,,0.00,weatherlink.com 1.10,2013-10-13 09:30:00,
2013-10-13 04:45:00,80.7,76.0,29.97,SE,140,10.0,13.0,86,0.00,,,0.00,weatherlink.com 1.10,2013-10-13 09:45:00,
2013-10-13 05:00:00,80.8,77.0,29.97,SE,145,7.0,13.0,87,0.00,,,0.00,weatherlink.com 1.10,2013-10-13 10:00:00,
2013-10-13 05:15:00,80.7,77.0,29.97,SE,144,12.0,14.0,87,0.00,,,0.00,weatherlink.com 1.10,2013-10-13 10:15:00,
2013-10-13 05:30:00,80.7,76.0,29.97,SE,138,7.0,15.0,85,0.00,,,0.00,weatherlink.com 1.10,2013-10-13 10:30:00,
2013-10-13 05:45:00,80.7,76.0,29.97,SE,145,9.0,15.0,86,0.00,,,0.00,weatherlink.com 1.10,2013-10-13 10:45:00,
2013-10-13 06:00:00,80.8,77.0,29.97,SE,142,7.0,11.0,87,0.00,,,0.00,weatherlink.com 1.10,2013-10-13 11:00:00,
2013-10-13 06:15:00,80.6,76.0,29.97,SSE,156,8.0,13.0,86,0.00,,,0.00,weatherlink.com 1.10,2013-10-13 11:15:00,
2013-10-13 06:30:00,80.7,76.0,29.98,SE,142,8.0,19.0,86,0.00,,,0.00,weatherlink.com 1.10,2013-10-13 11:30:00,
2013-10-13 06:45:00,80.6,77.0,29.99,SE,138,8.0,14.0,87,0.00,,,0.00,weatherlink.com 1.10,2013-10-13 11:45:00,
2013-10-13 07:00:00,80.6,77.0,29.99,SE,146,9.0,12.0,87,0.00,,,0.00,weatherlink.com 1.10,2013-10-13 12:00:00,
2013-10-13 07:15:00,80.6,77.0,29.99,SE,126,8.0,14.0,87,0.00,,,0.00,weatherlink.com 1.10,2013-10-13 12:15:00,
2013-10-13 07:31:00,80.7,77.0,30.00,SE,138,6.0,14.0,87,0.00,,,0.00,weatherlink.com 1.10,2013-10-13 12:31:00,
2013-10-13 07:46:00,78.7,74.0,30.01,South,179,6.0,9.0,86,0.00,,,0.00,weatherlink.com 1.10,2013-10-13 12:46:00,
2013-10-13 08:01:00,76.6,72.0,30.02,South,179,6.0,15.0,85,0.00,,,0.00,weatherlink.com 1.10,2013-10-13 13:01:00,
2013-10-13 08:16:00,77.4,74.0,30.02,South,171,7.0,10.0,88,0.00,,,0.00,weatherlink.com 1.10,2013-10-13 13:16:00,
2013-10-13 08:31:00,79.1,74.0,30.03,SSE,154,13.0,22.0,84,0.00,,,0.00,weatherlink.com 1.10,2013-10-13 13:31:00,
2013-10-13 08:46:00,77.0,73.0,30.03,SSE,148,10.0,18.0,87,0.00,,,0.00,weatherlink.com 1.10,2013-10-13 13:46:00,
2013-10-13 09:01:00,76.4,73.0,30.04,SSE,150,14.0,16.0,88,0.01,,,0.01,weatherlink.com 1.10,2013-10-13 14:01:00,
2013-10-13 09:16:00,75.6,72.0,30.05,SSE,149,9.0,20.0,89,0.02,,,0.02,weatherlink.com 1.10,2013-10-13 14:16:00,
2013-10-13 09:31:00,75.9,73.0,30.06,SSE,148,13.0,23.0,90,0.02,,,0.02,weatherlink.com 1.10,2013-10-13 14:31:00,
2013-10-13 09:46:00,76.0,73.0,30.07,SE,145,10.0,21.0,90,0.07,,,0.08,weatherlink.com 1.10,2013-10-13 14:46:00,
2013-10-13 10:01:00,75.1,72.0,30.07,South,174,9.0,15.0,90,0.09,,,0.10,weatherlink.com 1.10,2013-10-13 15:01:00,
2013-10-13 10:16:00,74.6,72.0,30.07,South,188,6.0,11.0,90,0.08,,,0.10,weatherlink.com 1.10,2013-10-13 15:16:00,
2013-10-13 10:31:00,74.6,72.0,30.06,SW,227,2.0,9.0,91,0.10,,,0.12,weatherlink.com 1.10,2013-10-13 15:31:00,
2013-10-13 10:46:00,75.0,72.0,30.07,SW,219,11.0,13.0,90,0.04,,,0.12,weatherlink.com 1.10,2013-10-13 15:46:00,
2013-10-13 11:01:00,75.2,73.0,30.06,SW,216,11.0,12.0,92,0.04,,,0.14,weatherlink.com 1.10,2013-10-13 16:01:00,
2013-10-13 11:16:00,75.5,73.0,30.06,SW,227,6.0,9.0,91,0.04,,,0.14,weatherlink.com 1.10,2013-10-13 16:16:00,
2013-10-13 11:31:00,75.9,74.0,30.06,SW,219,0.0,0.0,92,0.04,,,0.16,weatherlink.com 1.10,2013-10-13 16:31:00,
2013-10-13 11:46:00,77.2,75.0,30.05,SW,219,0.0,0.0,92,0.05,,,0.17,weatherlink.com 1.10,2013-10-13 16:46:00,
2013-10-13 12:01:00,78.0,76.0,30.05,ENE,68,0.0,0.0,92,0.03,,,0.17,weatherlink.com 1.10,2013-10-13 17:01:00,
2013-10-13 12:16:00,79.5,77.0,30.05,SE,131,4.0,5.0,91,0.03,,,0.17,weatherlink.com 1.10,2013-10-13 17:16:00,
2013-10-13 12:31:00,80.8,77.0,30.04,SSE,150,5.0,7.0,88,0.01,,,0.17,weatherlink.com 1.10,2013-10-13 17:31:00,
2013-10-13 12:46:00,82.3,77.0,30.03,SE,145,2.0,7.0,84,0.00,,,0.17,weatherlink.com 1.10,2013-10-13 17:46:00,
2013-10-13 13:01:00,83.5,78.0,30.02,SE,142,4.0,10.0,83,0.00,,,0.17,weatherlink.com 1.10,2013-10-13 18:01:00,
2013-10-13 13:16:00,84.1,77.0,30.02,SE,126,8.0,15.0,79,0.00,,,0.17,weatherlink.com 1.10,2013-10-13 18:16:00,
2013-10-13 13:31:00,84.7,77.0,30.01,SE,139,7.0,18.0,78,0.00,,,0.17,weatherlink.com 1.10,2013-10-13 18:31:00,
2013-10-13 13:46:00,84.0,77.0,30.00,SE,140,12.0,18.0,79,0.00,,,0.17,weatherlink.com 1.10,2013-10-13 18:46:00,
2013-10-13 14:01:00,84.2,77.0,29.99,ESE,116,11.0,15.0,79,0.00,,,0.17,weatherlink.com 1.10,2013-10-13 19:01:00,
2013-10-13 14:16:00,85.5,77.0,29.99,East,100,8.0,16.0,75,0.00,,,0.17,weatherlink.com 1.10,2013-10-13 19:16:00,
2013-10-13 14:31:00,84.5,76.0,29.98,SE,146,12.0,18.0,76,0.00,,,0.17,weatherlink.com 1.10,2013-10-13 19:31:00,
2013-10-13 14:46:00,84.5,76.0,29.98,SSE,152,6.0,18.0,76,0.00,,,0.17,weatherlink.com 1.10,2013-10-13 19:46:00,
2013-10-13 15:01:00,84.8,77.0,29.97,ESE,121,7.0,16.0,76,0.00,,,0.17,weatherlink.com 1.10,2013-10-13 20:01:00,
2013-10-13 15:16:00,84.5,76.0,29.96,ESE,119,8.0,18.0,76,0.00,,,0.17,weatherlink.com 1.10,2013-10-13 20:16:00,
2013-10-13 15:31:00,84.8,77.0,29.96,SE,125,12.0,16.0,76,0.00,,,0.17,weatherlink.com 1.10,2013-10-13 20:31:00,
2013-10-13 15:46:00,84.3,76.0,29.95,SE,125,10.0,15.0,76,0.00,,,0.17,weatherlink.com 1.10,2013-10-13 20:46:00,
2013-10-13 16:01:00,83.5,76.0,29.95,ESE,119,11.0,18.0,78,0.00,,,0.17,weatherlink.com 1.10,2013-10-13 21:01:00,
2013-10-13 16:16:00,83.5,76.0,29.95,ESE,116,11.0,15.0,79,0.00,,,0.17,weatherlink.com 1.10,2013-10-13 21:16:00,
2013-10-13 16:31:00,83.0,76.0,29.95,ESE,115,11.0,14.0,79,0.00,,,0.17,weatherlink.com 1.10,2013-10-13 21:31:00,
2013-10-13 16:46:00,82.8,75.0,29.95,ESE,113,10.0,15.0,78,0.00,,,0.17,weatherlink.com 1.10,2013-10-13 21:46:00,
2013-10-13 17:01:00,82.9,75.0,29.95,ESE,115,13.0,16.0,78,0.00,,,0.17,weatherlink.com 1.10,2013-10-13 22:01:00,
2013-10-13 17:16:00,83.0,76.0,29.95,SE,128,13.0,15.0,79,0.00,,,0.17,weatherlink.com 1.10,2013-10-13 22:16:00,
2013-10-13 17:31:00,82.6,76.0,29.96,ESE,106,9.0,19.0,80,0.00,,,0.17,weatherlink.com 1.10,2013-10-13 22:31:00,
2013-10-13 17:46:00,82.3,76.0,29.96,ESE,106,11.0,19.0,80,0.00,,,0.17,weatherlink.com 1.10,2013-10-13 22:46:00,
2013-10-13 18:01:00,82.0,75.0,29.96,ESE,123,10.0,19.0,80,0.00,,,0.17,weatherlink.com 1.10,2013-10-13 23:01:00,
2013-10-13 18:16:00,81.8,76.0,29.97,ESE,106,14.0,19.0,81,0.00,,,0.17,weatherlink.com 1.10,2013-10-13 23:16:00,
2013-10-13 18:31:00,81.7,76.0,29.97,ESE,115,9.0,15.0,82,0.00,,,0.17,weatherlink.com 1.10,2013-10-13 23:31:00,
2013-10-13 18:46:00,81.5,76.0,29.97,East,81,8.0,18.0,82,0.00,,,0.17,weatherlink.com 1.10,2013-10-13 23:46:00,
2013-10-13 19:01:00,81.5,76.0,29.98,East,100,7.0,15.0,82,0.00,,,0.17,weatherlink.com 1.10,2013-10-14 00:01:00,
2013-10-13 19:16:00,81.3,75.0,29.99,ESE,108,14.0,15.0,82,0.00,,,0.17,weatherlink.com 1.10,2013-10-14 00:16:00,
2013-10-13 19:31:00,81.3,76.0,29.99,ESE,102,11.0,13.0,84,0.00,,,0.17,weatherlink.com 1.10,2013-10-14 00:31:00,
2013-10-13 19:46:00,81.2,76.0,30.00,ESE,113,7.0,16.0,84,0.00,,,0.17,weatherlink.com 1.10,2013-10-14 00:46:00,
2013-10-13 20:01:00,81.0,76.0,30.00,East,85,7.0,14.0,84,0.00,,,0.17,weatherlink.com 1.10,2013-10-14 01:01:00,
2013-10-13 20:16:00,80.9,76.0,30.00,ESE,103,7.0,15.0,85,0.00,,,0.17,weatherlink.com 1.10,2013-10-14 01:16:00,
2013-10-13 20:31:00,78.5,73.0,30.00,East,94,13.0,22.0,84,0.01,,,0.18,weatherlink.com 1.10,2013-10-14 01:31:00,
2013-10-13 20:46:00,77.6,74.0,30.00,ESE,103,11.0,21.0,87,0.02,,,0.19,weatherlink.com 1.10,2013-10-14 01:46:00,
2013-10-13 21:01:00,78.6,75.0,30.01,SE,127,13.0,19.0,88,0.02,,,0.19,weatherlink.com 1.10,2013-10-14 02:01:00,
2013-10-13 21:17:00,79.1,74.0,30.02,East,90,10.0,21.0,83,0.02,,,0.19,weatherlink.com 1.10,2013-10-14 02:17:00,
2013-10-13 21:32:00,79.6,73.0,30.02,East,98,12.0,19.0,81,0.01,,,0.19,weatherlink.com 1.10,2013-10-14 02:32:00,
2013-10-13 21:47:00,80.0,74.0,30.02,East,96,9.0,19.0,82,0.00,,,0.19,weatherlink.com 1.10,2013-10-14 02:47:00,
2013-10-13 22:02:00,79.4,74.0,30.02,East,96,11.0,19.0,83,0.00,,,0.19,weatherlink.com 1.10,2013-10-14 03:02:00,
2013-10-13 22:17:00,79.7,75.0,30.02,East,81,12.0,21.0,84,0.00,,,0.19,weatherlink.com 1.10,2013-10-14 03:17:00,
2013-10-13 22:32:00,78.7,75.0,30.03,ENE,75,12.0,19.0,87,0.00,,,0.19,weatherlink.com 1.10,2013-10-14 03:32:00,
2013-10-13 22:47:00,78.9,75.0,30.01,ENE,69,9.0,15.0,87,0.00,,,0.19,weatherlink.com 1.10,2013-10-14 03:47:00,
2013-10-13 23:02:00,80.6,74.0,30.01,ESE,112,18.0,21.0,81,0.00,,,0.19,weatherlink.com 1.10,2013-10-14 04:02:00,
2013-10-13 23:17:00,80.7,75.0,30.00,East,98,13.0,21.0,82,0.00,,,0.19,weatherlink.com 1.10,2013-10-14 04:17:00,
2013-10-13 23:32:00,80.6,74.0,30.00,ESE,106,12.0,20.0,81,0.00,,,0.19,weatherlink.com 1.10,2013-10-14 04:32:00,
2013-10-13 23:47:00,80.6,75.0,30.01,SE,124,10.0,19.0,82,0.00,,,0.19,weatherlink.com 1.10,2013-10-14 04:47:00,